sensor_id;sensor_type;location;lat;lon;timestamp;noise_LAeq;noise_LA_min;noise_LA_max;noise_LA01;noise_LA95
66747;Laerm;53658;50.742;10.864;2024-02-26T00:00:00;47.15;45.78;48.39;;
66747;Laerm;53658;50.742;10.864;2024-02-26T00:02:26;46.97;45.36;48.10;;
66747;Laerm;53658;50.742;10.864;2024-02-26T00:04:52;46.96;45.51;48.02;;
66747;Laerm;53658;50.742;10.864;2024-02-26T00:07:17;47.20;45.67;48.32;;
66747;Laerm;53658;50.742;10.864;2024-02-26T00:09:43;47.82;46.35;49.00;;
66747;Laerm;53658;50.742;10.864;2024-02-26T00:12:09;48.44;47.02;49.51;;
66747;Laerm;53658;50.742;10.864;2024-02-26T00:14:34;48.87;47.44;49.84;;
66747;Laerm;53658;50.742;10.864;2024-02-26T00:17:00;49.05;47.90;50.00;;
66747;Laerm;53658;50.742;10.864;2024-02-26T00:19:26;49.32;47.91;50.27;;
66747;Laerm;53658;50.742;10.864;2024-02-26T00:21:52;49.52;48.28;50.43;;
66747;Laerm;53658;50.742;10.864;2024-02-26T00:24:21;49.73;48.58;50.68;;
66747;Laerm;53658;50.742;10.864;2024-02-26T00:26:47;49.79;48.62;50.76;;
66747;Laerm;53658;50.742;10.864;2024-02-26T00:29:19;50.00;48.74;51.04;;
66747;Laerm;53658;50.742;10.864;2024-02-26T00:31:45;50.09;48.49;50.97;;
66747;Laerm;53658;50.742;10.864;2024-02-26T00:34:11;50.00;49.02;51.16;;
66747;Laerm;53658;50.742;10.864;2024-02-26T00:36:37;50.08;48.83;51.12;;
66747;Laerm;53658;50.742;10.864;2024-02-26T00:39:02;50.24;48.55;51.11;;
66747;Laerm;53658;50.742;10.864;2024-02-26T00:41:29;50.49;49.41;51.38;;
66747;Laerm;53658;50.742;10.864;2024-02-26T00:43:55;50.54;49.41;51.50;;
66747;Laerm;53658;50.742;10.864;2024-02-26T00:46:21;50.54;49.33;51.46;;
66747;Laerm;53658;50.742;10.864;2024-02-26T00:48:47;50.58;49.41;51.65;;
66747;Laerm;53658;50.742;10.864;2024-02-26T00:51:12;50.56;49.32;51.86;;
66747;Laerm;53658;50.742;10.864;2024-02-26T00:53:38;50.50;49.41;51.37;;
66747;Laerm;53658;50.742;10.864;2024-02-26T00:56:04;50.59;49.39;51.55;;
66747;Laerm;53658;50.742;10.864;2024-02-26T00:58:30;50.63;49.64;51.60;;
66747;Laerm;53658;50.742;10.864;2024-02-26T01:00:56;50.74;49.51;51.77;;
66747;Laerm;53658;50.742;10.864;2024-02-26T01:03:22;50.75;49.63;51.89;;
66747;Laerm;53658;50.742;10.864;2024-02-26T01:05:47;50.77;49.55;51.67;;
66747;Laerm;53658;50.742;10.864;2024-02-26T01:08:13;50.63;49.55;51.60;;
66747;Laerm;53658;50.742;10.864;2024-02-26T01:10:39;50.68;49.69;51.57;;
66747;Laerm;53658;50.742;10.864;2024-02-26T01:13:05;50.69;49.53;51.59;;
66747;Laerm;53658;50.742;10.864;2024-02-26T01:15:31;50.67;49.55;51.69;;
66747;Laerm;53658;50.742;10.864;2024-02-26T01:17:57;50.48;49.19;51.52;;
66747;Laerm;53658;50.742;10.864;2024-02-26T01:20:23;50.60;48.87;51.63;;
66747;Laerm;53658;50.742;10.864;2024-02-26T01:22:49;50.64;49.69;51.54;;
66747;Laerm;53658;50.742;10.864;2024-02-26T01:25:15;50.48;49.34;51.42;;
66747;Laerm;53658;50.742;10.864;2024-02-26T01:27:41;50.53;49.44;51.56;;
66747;Laerm;53658;50.742;10.864;2024-02-26T01:30:08;50.47;49.40;51.47;;
66747;Laerm;53658;50.742;10.864;2024-02-26T01:32:34;50.47;49.40;51.37;;
66747;Laerm;53658;50.742;10.864;2024-02-26T01:35:02;50.47;48.94;51.42;;
66747;Laerm;53658;50.742;10.864;2024-02-26T01:37:29;50.56;49.39;51.51;;
66747;Laerm;53658;50.742;10.864;2024-02-26T01:39:57;50.65;49.65;51.58;;
66747;Laerm;53658;50.742;10.864;2024-02-26T01:42:23;50.69;49.45;51.68;;
66747;Laerm;53658;50.742;10.864;2024-02-26T01:44:49;50.67;49.41;51.61;;
66747;Laerm;53658;50.742;10.864;2024-02-26T01:47:15;50.54;49.34;51.52;;
66747;Laerm;53658;50.742;10.864;2024-02-26T01:49:41;50.41;49.25;51.34;;
66747;Laerm;53658;50.742;10.864;2024-02-26T01:52:08;50.47;49.24;51.37;;
66747;Laerm;53658;50.742;10.864;2024-02-26T01:54:37;50.41;49.25;51.50;;
66747;Laerm;53658;50.742;10.864;2024-02-26T01:57:05;50.31;49.32;51.25;;
66747;Laerm;53658;50.742;10.864;2024-02-26T01:59:32;50.45;49.15;51.44;;
66747;Laerm;53658;50.742;10.864;2024-02-26T02:02:03;50.39;49.15;51.33;;
66747;Laerm;53658;50.742;10.864;2024-02-26T02:04:29;50.35;49.36;51.35;;
66747;Laerm;53658;50.742;10.864;2024-02-26T02:06:58;50.47;49.24;51.35;;
66747;Laerm;53658;50.742;10.864;2024-02-26T02:09:26;50.54;49.46;51.57;;
66747;Laerm;53658;50.742;10.864;2024-02-26T02:11:53;50.57;49.53;51.50;;
66747;Laerm;53658;50.742;10.864;2024-02-26T02:14:19;50.66;49.81;51.58;;
66747;Laerm;53658;50.742;10.864;2024-02-26T02:16:46;50.55;49.56;51.47;;
66747;Laerm;53658;50.742;10.864;2024-02-26T02:19:13;50.47;49.49;51.52;;
66747;Laerm;53658;50.742;10.864;2024-02-26T02:21:39;50.40;49.34;51.24;;
66747;Laerm;53658;50.742;10.864;2024-02-26T02:24:05;50.54;49.10;51.50;;
66747;Laerm;53658;50.742;10.864;2024-02-26T02:26:30;50.67;49.50;51.71;;
66747;Laerm;53658;50.742;10.864;2024-02-26T02:28:57;50.84;49.67;51.76;;
66747;Laerm;53658;50.742;10.864;2024-02-26T02:31:24;50.91;49.85;51.78;;
66747;Laerm;53658;50.742;10.864;2024-02-26T02:33:50;51.03;49.84;51.93;;
66747;Laerm;53658;50.742;10.864;2024-02-26T02:36:16;51.09;50.03;51.98;;
66747;Laerm;53658;50.742;10.864;2024-02-26T02:38:51;51.03;49.55;51.89;;
66747;Laerm;53658;50.742;10.864;2024-02-26T02:41:18;51.15;49.87;52.06;;
66747;Laerm;53658;50.742;10.864;2024-02-26T02:43:44;51.29;50.14;52.21;;
66747;Laerm;53658;50.742;10.864;2024-02-26T02:46:10;51.24;50.15;52.13;;
66747;Laerm;53658;50.742;10.864;2024-02-26T02:48:38;51.38;50.30;52.43;;
66747;Laerm;53658;50.742;10.864;2024-02-26T02:51:05;51.28;50.17;52.28;;
66747;Laerm;53658;50.742;10.864;2024-02-26T02:53:31;51.20;50.06;52.12;;
66747;Laerm;53658;50.742;10.864;2024-02-26T02:55:56;51.16;50.04;52.15;;
66747;Laerm;53658;50.742;10.864;2024-02-26T02:58:22;51.15;49.91;52.10;;
66747;Laerm;53658;50.742;10.864;2024-02-26T03:00:48;50.99;49.91;51.95;;
66747;Laerm;53658;50.742;10.864;2024-02-26T03:03:14;50.89;49.81;51.80;;
66747;Laerm;53658;50.742;10.864;2024-02-26T03:05:39;50.89;49.88;51.83;;
66747;Laerm;53658;50.742;10.864;2024-02-26T03:08:05;50.79;49.69;51.84;;
66747;Laerm;53658;50.742;10.864;2024-02-26T03:10:31;50.73;49.60;51.70;;
66747;Laerm;53658;50.742;10.864;2024-02-26T03:12:57;50.58;49.19;51.50;;
66747;Laerm;53658;50.742;10.864;2024-02-26T03:15:23;50.49;49.56;51.43;;
66747;Laerm;53658;50.742;10.864;2024-02-26T03:17:49;50.42;49.24;51.44;;
66747;Laerm;53658;50.742;10.864;2024-02-26T03:20:14;50.41;49.15;51.35;;
66747;Laerm;53658;50.742;10.864;2024-02-26T03:22:40;50.45;49.30;51.67;;
66747;Laerm;53658;50.742;10.864;2024-02-26T03:25:07;50.44;49.29;51.41;;
66747;Laerm;53658;50.742;10.864;2024-02-26T03:27:33;50.34;49.14;51.30;;
66747;Laerm;53658;50.742;10.864;2024-02-26T03:29:58;50.19;49.16;51.11;;
66747;Laerm;53658;50.742;10.864;2024-02-26T03:32:24;50.20;49.02;51.08;;
66747;Laerm;53658;50.742;10.864;2024-02-26T03:34:50;50.22;49.08;51.15;;
66747;Laerm;53658;50.742;10.864;2024-02-26T03:37:19;50.15;49.00;51.19;;
66747;Laerm;53658;50.742;10.864;2024-02-26T03:39:45;50.03;48.66;51.15;;
66747;Laerm;53658;50.742;10.864;2024-02-26T03:42:11;49.90;48.88;50.90;;
66747;Laerm;53658;50.742;10.864;2024-02-26T03:44:37;49.81;48.57;50.80;;
66747;Laerm;53658;50.742;10.864;2024-02-26T03:47:03;49.54;48.20;50.56;;
66747;Laerm;53658;50.742;10.864;2024-02-26T03:49:28;49.31;48.18;50.20;;
66747;Laerm;53658;50.742;10.864;2024-02-26T03:51:54;49.17;47.91;50.10;;
66747;Laerm;53658;50.742;10.864;2024-02-26T03:54:20;48.69;47.00;49.89;;
66747;Laerm;53658;50.742;10.864;2024-02-26T03:56:46;48.10;46.59;49.23;;
66747;Laerm;53658;50.742;10.864;2024-02-26T03:59:12;47.34;45.69;48.64;;
66747;Laerm;53658;50.742;10.864;2024-02-26T04:01:37;46.51;44.97;48.20;;
66747;Laerm;53658;50.742;10.864;2024-02-26T04:04:04;46.14;44.65;47.57;;
66747;Laerm;53658;50.742;10.864;2024-02-26T04:06:29;45.71;44.23;47.00;;
66747;Laerm;53658;50.742;10.864;2024-02-26T04:08:56;45.33;43.94;46.38;;
66747;Laerm;53658;50.742;10.864;2024-02-26T04:11:21;45.09;43.49;46.69;;
66747;Laerm;53658;50.742;10.864;2024-02-26T04:13:48;44.86;43.34;46.20;;
66747;Laerm;53658;50.742;10.864;2024-02-26T04:16:15;44.79;43.14;45.94;;
66747;Laerm;53658;50.742;10.864;2024-02-26T04:18:42;44.71;43.24;46.10;;
66747;Laerm;53658;50.742;10.864;2024-02-26T04:21:08;44.07;42.76;45.39;;
66747;Laerm;53658;50.742;10.864;2024-02-26T04:23:34;43.98;42.41;45.20;;
66747;Laerm;53658;50.742;10.864;2024-02-26T04:25:59;43.59;41.96;44.90;;
66747;Laerm;53658;50.742;10.864;2024-02-26T04:28:25;43.51;42.22;44.73;;
66747;Laerm;53658;50.742;10.864;2024-02-26T04:30:55;43.39;42.03;44.90;;
66747;Laerm;53658;50.742;10.864;2024-02-26T04:33:21;43.60;42.16;45.14;;
66747;Laerm;53658;50.742;10.864;2024-02-26T04:35:47;43.21;41.75;45.04;;
66747;Laerm;53658;50.742;10.864;2024-02-26T04:38:13;42.97;41.53;44.76;;
66747;Laerm;53658;50.742;10.864;2024-02-26T04:40:39;42.58;41.30;44.11;;
66747;Laerm;53658;50.742;10.864;2024-02-26T04:43:04;42.35;40.98;43.99;;
66747;Laerm;53658;50.742;10.864;2024-02-26T04:45:30;41.92;40.53;43.90;;
66747;Laerm;53658;50.742;10.864;2024-02-26T04:47:56;41.69;40.53;43.94;;
66747;Laerm;53658;50.742;10.864;2024-02-26T04:50:21;41.39;39.81;43.04;;
66747;Laerm;53658;50.742;10.864;2024-02-26T04:52:47;40.78;39.35;42.47;;
66747;Laerm;53658;50.742;10.864;2024-02-26T04:55:13;40.54;39.21;42.53;;
66747;Laerm;53658;50.742;10.864;2024-02-26T04:57:39;40.23;38.52;44.76;;
66747;Laerm;53658;50.742;10.864;2024-02-26T05:00:05;40.10;38.52;42.03;;
66747;Laerm;53658;50.742;10.864;2024-02-26T05:02:31;39.77;38.21;41.68;;
66747;Laerm;53658;50.742;10.864;2024-02-26T05:04:59;39.49;37.88;41.38;;
66747;Laerm;53658;50.742;10.864;2024-02-26T05:07:24;39.31;37.52;40.80;;
66747;Laerm;53658;50.742;10.864;2024-02-26T05:09:50;39.10;37.12;40.89;;
66747;Laerm;53658;50.742;10.864;2024-02-26T05:12:16;38.89;36.69;40.89;;
66747;Laerm;53658;50.742;10.864;2024-02-26T05:14:42;38.74;36.20;40.62;;
66747;Laerm;53658;50.742;10.864;2024-02-26T05:17:08;38.55;36.20;40.71;;
66747;Laerm;53658;50.742;10.864;2024-02-26T05:19:34;38.50;35.86;40.33;;
66747;Laerm;53658;50.742;10.864;2024-02-26T05:21:59;38.45;35.66;40.54;;
66747;Laerm;53658;50.742;10.864;2024-02-26T05:24:25;38.39;35.94;40.80;;
66747;Laerm;53658;50.742;10.864;2024-02-26T05:26:53;38.29;35.04;40.43;;
66747;Laerm;53658;50.742;10.864;2024-02-26T05:29:18;38.29;35.66;40.62;;
66747;Laerm;53658;50.742;10.864;2024-02-26T05:31:44;38.23;35.66;40.33;;
66747;Laerm;53658;50.742;10.864;2024-02-26T05:34:10;38.16;34.31;40.62;;
66747;Laerm;53658;50.742;10.864;2024-02-26T05:36:36;38.28;34.31;43.24;;
66747;Laerm;53658;50.742;10.864;2024-02-26T05:39:02;38.21;35.36;40.80;;
66747;Laerm;53658;50.742;10.864;2024-02-26T05:41:29;38.14;35.36;40.62;;
66747;Laerm;53658;50.742;10.864;2024-02-26T05:43:55;38.16;35.66;40.23;;
66747;Laerm;53658;50.742;10.864;2024-02-26T05:46:22;38.20;35.36;40.71;;
66747;Laerm;53658;50.742;10.864;2024-02-26T05:48:50;38.21;35.36;40.23;;
66747;Laerm;53658;50.742;10.864;2024-02-26T05:51:18;38.24;35.66;40.33;;
66747;Laerm;53658;50.742;10.864;2024-02-26T05:53:44;38.30;35.66;40.53;;
66747;Laerm;53658;50.742;10.864;2024-02-26T05:56:09;38.42;35.94;40.62;;
66747;Laerm;53658;50.742;10.864;2024-02-26T05:58:35;38.48;35.94;40.63;;
66747;Laerm;53658;50.742;10.864;2024-02-26T06:01:02;38.57;36.20;40.63;;
66747;Laerm;53658;50.742;10.864;2024-02-26T06:03:28;38.92;36.20;41.30;;
66747;Laerm;53658;50.742;10.864;2024-02-26T06:05:53;39.11;37.12;40.98;;
66747;Laerm;53658;50.742;10.864;2024-02-26T06:08:19;39.57;37.88;41.68;;
66747;Laerm;53658;50.742;10.864;2024-02-26T06:10:45;39.55;37.88;41.46;;
66747;Laerm;53658;50.742;10.864;2024-02-26T06:13:11;39.49;37.70;41.89;;
66747;Laerm;53658;50.742;10.864;2024-02-26T06:15:37;39.39;37.52;41.41;;
66747;Laerm;53658;50.742;10.864;2024-02-26T06:18:03;39.34;37.52;41.14;;
66747;Laerm;53658;50.742;10.864;2024-02-26T06:20:29;39.14;37.32;40.80;;
66747;Laerm;53658;50.742;10.864;2024-02-26T06:22:55;38.85;36.69;40.62;;
66747;Laerm;53658;50.742;10.864;2024-02-26T06:25:20;38.64;36.20;40.62;;
66747;Laerm;53658;50.742;10.864;2024-02-26T06:27:46;38.50;35.04;40.53;;
66747;Laerm;53658;50.742;10.864;2024-02-26T06:30:12;38.38;35.04;40.62;;
66747;Laerm;53658;50.742;10.864;2024-02-26T06:32:38;38.19;35.04;40.43;;
66747;Laerm;53658;50.742;10.864;2024-02-26T06:35:04;38.09;35.04;40.23;;
66747;Laerm;53658;50.742;10.864;2024-02-26T06:37:35;38.02;34.31;40.89;;
66747;Laerm;53658;50.742;10.864;2024-02-26T06:40:02;37.97;34.69;40.43;;
66747;Laerm;53658;50.742;10.864;2024-02-26T06:42:30;38.02;34.69;40.43;;
66747;Laerm;53658;50.742;10.864;2024-02-26T06:44:56;38.00;34.69;40.71;;
66747;Laerm;53658;50.742;10.864;2024-02-26T06:47:22;38.00;34.69;40.33;;
66747;Laerm;53658;50.742;10.864;2024-02-26T06:49:47;37.93;33.44;40.53;;
66747;Laerm;53658;50.742;10.864;2024-02-26T06:52:13;37.94;33.44;40.53;;
66747;Laerm;53658;50.742;10.864;2024-02-26T06:54:39;37.91;34.31;40.23;;
66747;Laerm;53658;50.742;10.864;2024-02-26T06:57:04;37.88;34.31;40.23;;
66747;Laerm;53658;50.742;10.864;2024-02-26T06:59:30;37.85;34.69;40.23;;
66747;Laerm;53658;50.742;10.864;2024-02-26T07:01:56;37.84;33.90;40.23;;
66747;Laerm;53658;50.742;10.864;2024-02-26T07:04:22;37.84;33.90;40.43;;
66747;Laerm;53658;50.742;10.864;2024-02-26T07:06:48;37.83;34.31;40.33;;
66747;Laerm;53658;50.742;10.864;2024-02-26T07:09:14;37.85;33.90;40.27;;
66747;Laerm;53658;50.742;10.864;2024-02-26T07:11:40;37.90;33.97;51.00;;
66747;Laerm;53658;50.742;10.864;2024-02-26T07:14:09;37.86;32.93;40.43;;
66747;Laerm;53658;50.742;10.864;2024-02-26T07:16:35;46.02;32.93;81.51;;
66747;Laerm;53658;50.742;10.864;2024-02-26T07:19:01;37.81;33.44;39.92;;
66747;Laerm;53658;50.742;10.864;2024-02-26T07:21:27;37.78;33.90;40.98;;
66747;Laerm;53658;50.742;10.864;2024-02-26T07:23:54;37.78;32.93;40.13;;
66747;Laerm;53658;50.742;10.864;2024-02-26T07:26:19;37.74;33.44;40.13;;
66747;Laerm;53658;50.742;10.864;2024-02-26T07:28:46;37.76;33.44;42.93;;
66747;Laerm;53658;50.742;10.864;2024-02-26T07:31:12;37.79;33.90;40.43;;
66747;Laerm;53658;50.742;10.864;2024-02-26T07:33:38;37.75;33.90;40.43;;
66747;Laerm;53658;50.742;10.864;2024-02-26T07:36:04;37.78;34.31;40.23;;
66747;Laerm;53658;50.742;10.864;2024-02-26T07:38:30;37.73;33.90;40.43;;
66747;Laerm;53658;50.742;10.864;2024-02-26T07:40:56;37.78;33.90;40.43;;
66747;Laerm;53658;50.742;10.864;2024-02-26T07:43:22;37.77;33.90;40.23;;
66747;Laerm;53658;50.742;10.864;2024-02-26T07:45:48;47.95;5.00;83.70;;
66747;Laerm;53658;50.742;10.864;2024-02-26T07:48:14;37.77;33.44;41.06;;
66747;Laerm;53658;50.742;10.864;2024-02-26T07:50:40;37.77;33.44;40.23;;
66747;Laerm;53658;50.742;10.864;2024-02-26T07:53:06;37.75;33.90;40.71;;
66747;Laerm;53658;50.742;10.864;2024-02-26T07:55:32;37.77;34.31;40.53;;
66747;Laerm;53658;50.742;10.864;2024-02-26T07:57:58;43.49;34.31;78.33;;
66747;Laerm;53658;50.742;10.864;2024-02-26T08:00:23;37.76;33.90;41.14;;
66747;Laerm;53658;50.742;10.864;2024-02-26T08:02:49;37.77;33.44;40.62;;
66747;Laerm;53658;50.742;10.864;2024-02-26T08:05:15;37.99;32.35;61.78;;
66747;Laerm;53658;50.742;10.864;2024-02-26T08:07:41;37.84;33.44;40.62;;
66747;Laerm;53658;50.742;10.864;2024-02-26T08:10:07;37.83;33.90;40.33;;
66747;Laerm;53658;50.742;10.864;2024-02-26T08:12:33;47.47;32.35;83.10;;
66747;Laerm;53658;50.742;10.864;2024-02-26T08:14:59;38.00;33.90;40.62;;
66747;Laerm;53658;50.742;10.864;2024-02-26T08:17:25;38.25;34.31;40.88;;
66747;Laerm;53658;50.742;10.864;2024-02-26T08:19:52;38.38;33.90;41.38;;
66747;Laerm;53658;50.742;10.864;2024-02-26T08:22:18;38.45;34.69;41.53;;
66747;Laerm;53658;50.742;10.864;2024-02-26T08:24:45;38.49;34.69;41.46;;
66747;Laerm;53658;50.742;10.864;2024-02-26T08:27:10;38.48;34.31;40.98;;
66747;Laerm;53658;50.742;10.864;2024-02-26T08:29:36;38.65;33.90;61.07;;
66747;Laerm;53658;50.742;10.864;2024-02-26T08:32:02;38.31;34.31;40.98;;
66747;Laerm;53658;50.742;10.864;2024-02-26T08:34:28;38.68;33.90;62.67;;
66747;Laerm;53658;50.742;10.864;2024-02-26T08:36:54;38.60;35.04;41.38;;
66747;Laerm;53658;50.742;10.864;2024-02-26T08:39:19;38.50;34.31;41.06;;
66747;Laerm;53658;50.742;10.864;2024-02-26T08:41:46;38.37;33.90;40.98;;
66747;Laerm;53658;50.742;10.864;2024-02-26T08:44:11;38.41;34.31;40.98;;
66747;Laerm;53658;50.742;10.864;2024-02-26T08:46:37;38.35;34.31;40.89;;
66747;Laerm;53658;50.742;10.864;2024-02-26T08:49:04;38.23;34.31;40.89;;
66747;Laerm;53658;50.742;10.864;2024-02-26T08:51:29;38.07;32.93;40.53;;
66747;Laerm;53658;50.742;10.864;2024-02-26T08:53:56;37.84;33.90;40.43;;
66747;Laerm;53658;50.742;10.864;2024-02-26T08:56:21;37.78;33.44;40.43;;
66747;Laerm;53658;50.742;10.864;2024-02-26T08:58:47;37.92;33.90;40.13;;
66747;Laerm;53658;50.742;10.864;2024-02-26T09:01:19;37.93;34.31;40.53;;
66747;Laerm;53658;50.742;10.864;2024-02-26T09:03:45;38.26;35.04;40.71;;
66747;Laerm;53658;50.742;10.864;2024-02-26T09:06:11;38.65;35.94;40.53;;
66747;Laerm;53658;50.742;10.864;2024-02-26T09:08:39;39.41;37.12;41.14;;
66747;Laerm;53658;50.742;10.864;2024-02-26T09:11:05;40.22;38.21;41.94;;
66747;Laerm;53658;50.742;10.864;2024-02-26T09:13:32;40.57;38.37;42.03;;
66747;Laerm;53658;50.742;10.864;2024-02-26T09:15:58;40.56;38.67;42.16;;
66747;Laerm;53658;50.742;10.864;2024-02-26T09:18:24;40.52;38.67;41.96;;
66747;Laerm;53658;50.742;10.864;2024-02-26T09:20:50;40.51;38.67;41.96;;
66747;Laerm;53658;50.742;10.864;2024-02-26T09:23:16;40.58;38.67;42.16;;
66747;Laerm;53658;50.742;10.864;2024-02-26T09:25:42;40.68;39.08;42.09;;
66747;Laerm;53658;50.742;10.864;2024-02-26T09:28:08;40.81;39.08;42.13;;
66747;Laerm;53658;50.742;10.864;2024-02-26T09:30:34;41.01;39.34;42.53;;
66747;Laerm;53658;50.742;10.864;2024-02-26T09:33:00;41.11;39.46;42.47;;
66747;Laerm;53658;50.742;10.864;2024-02-26T09:35:26;41.12;39.46;42.47;;
66747;Laerm;53658;50.742;10.864;2024-02-26T09:37:52;41.08;39.46;42.47;;
66747;Laerm;53658;50.742;10.864;2024-02-26T09:40:19;41.08;39.21;42.59;;
66747;Laerm;53658;50.742;10.864;2024-02-26T09:42:45;41.01;39.21;42.76;;
66747;Laerm;53658;50.742;10.864;2024-02-26T09:45:18;40.91;39.21;42.16;;
66747;Laerm;53658;50.742;10.864;2024-02-26T09:47:48;40.86;39.21;42.16;;
66747;Laerm;53658;50.742;10.864;2024-02-26T09:50:17;40.80;39.21;42.09;;
66747;Laerm;53658;50.742;10.864;2024-02-26T09:52:44;41.05;39.46;42.42;;
66747;Laerm;53658;50.742;10.864;2024-02-26T09:55:10;41.10;39.34;42.47;;
66747;Laerm;53658;50.742;10.864;2024-02-26T09:57:37;41.11;38.81;42.71;;
66747;Laerm;53658;50.742;10.864;2024-02-26T10:00:04;41.13;39.58;42.41;;
66747;Laerm;53658;50.742;10.864;2024-02-26T10:02:35;41.00;39.08;42.41;;
66747;Laerm;53658;50.742;10.864;2024-02-26T10:05:02;40.99;38.95;42.65;;
66747;Laerm;53658;50.742;10.864;2024-02-26T10:07:31;40.95;38.81;42.76;;
66747;Laerm;53658;50.742;10.864;2024-02-26T10:09:57;40.81;38.67;42.71;;
66747;Laerm;53658;50.742;10.864;2024-02-26T10:12:23;40.75;38.81;42.41;;
66747;Laerm;53658;50.742;10.864;2024-02-26T10:14:51;40.79;38.52;42.35;;
66747;Laerm;53658;50.742;10.864;2024-02-26T10:17:18;40.77;38.67;42.29;;
66747;Laerm;53658;50.742;10.864;2024-02-26T10:19:45;40.73;38.67;42.41;;
66747;Laerm;53658;50.742;10.864;2024-02-26T10:22:11;40.74;38.32;42.35;;
66747;Laerm;53658;50.742;10.864;2024-02-26T10:24:37;40.75;38.52;42.29;;
66747;Laerm;53658;50.742;10.864;2024-02-26T10:27:03;40.75;38.67;42.35;;
66747;Laerm;53658;50.742;10.864;2024-02-26T10:29:29;40.78;38.52;42.16;;
66747;Laerm;53658;50.742;10.864;2024-02-26T10:31:55;40.82;38.37;42.53;;
66747;Laerm;53658;50.742;10.864;2024-02-26T10:34:21;40.88;38.52;42.47;;
66747;Laerm;53658;50.742;10.864;2024-02-26T10:36:47;40.93;39.08;42.53;;
66747;Laerm;53658;50.742;10.864;2024-02-26T10:39:13;40.91;38.95;42.29;;
66747;Laerm;53658;50.742;10.864;2024-02-26T10:41:43;40.89;38.21;42.35;;
66747;Laerm;53658;50.742;10.864;2024-02-26T10:44:09;40.89;38.81;42.35;;
66747;Laerm;53658;50.742;10.864;2024-02-26T10:46:41;40.88;38.95;42.29;;
66747;Laerm;53658;50.742;10.864;2024-02-26T10:49:13;40.87;38.95;42.41;;
66747;Laerm;53658;50.742;10.864;2024-02-26T10:51:44;40.84;38.67;42.35;;
66747;Laerm;53658;50.742;10.864;2024-02-26T10:54:15;40.84;38.95;42.41;;
66747;Laerm;53658;50.742;10.864;2024-02-26T10:56:42;40.82;38.81;42.35;;
66747;Laerm;53658;50.742;10.864;2024-02-26T10:59:09;40.80;38.81;42.47;;
66747;Laerm;53658;50.742;10.864;2024-02-26T11:01:36;40.75;38.67;42.82;;
66747;Laerm;53658;50.742;10.864;2024-02-26T11:04:08;40.73;38.52;42.16;;
66747;Laerm;53658;50.742;10.864;2024-02-26T11:06:35;40.72;38.37;42.16;;
66747;Laerm;53658;50.742;10.864;2024-02-26T11:09:02;40.72;38.81;42.47;;
66747;Laerm;53658;50.742;10.864;2024-02-26T11:11:32;40.69;38.37;42.41;;
66747;Laerm;53658;50.742;10.864;2024-02-26T11:14:01;40.70;38.21;42.47;;
66747;Laerm;53658;50.742;10.864;2024-02-26T11:16:28;40.68;38.67;42.47;;
66747;Laerm;53658;50.742;10.864;2024-02-26T11:18:55;40.67;38.47;42.47;;
66747;Laerm;53658;50.742;10.864;2024-02-26T11:21:22;40.65;38.21;42.29;;
66747;Laerm;53658;50.742;10.864;2024-02-26T11:24:06;40.62;38.37;42.35;;
66747;Laerm;53658;50.742;10.864;2024-02-26T11:26:41;40.54;38.52;42.16;;
66747;Laerm;53658;50.742;10.864;2024-02-26T11:29:14;40.46;37.70;42.22;;
66747;Laerm;53658;50.742;10.864;2024-02-26T11:31:42;40.47;38.18;42.16;;
66747;Laerm;53658;50.742;10.864;2024-02-26T11:34:09;40.46;38.05;42.41;;
66747;Laerm;53658;50.742;10.864;2024-02-26T11:36:37;40.48;37.88;42.22;;
66747;Laerm;53658;50.742;10.864;2024-02-26T11:39:04;40.46;37.52;42.29;;
66747;Laerm;53658;50.742;10.864;2024-02-26T11:41:30;40.43;38.05;42.09;;
66747;Laerm;53658;50.742;10.864;2024-02-26T11:44:03;40.44;37.70;42.29;;
66747;Laerm;53658;50.742;10.864;2024-02-26T11:46:34;40.49;37.88;42.16;;
66747;Laerm;53658;50.742;10.864;2024-02-26T11:51:53;40.62;38.52;42.53;;
66747;Laerm;53658;50.742;10.864;2024-02-26T11:57:21;40.70;38.81;42.16;;
66747;Laerm;53658;50.742;10.864;2024-02-26T11:59:47;40.76;38.67;42.58;;
66747;Laerm;53658;50.742;10.864;2024-02-26T12:05:24;40.81;38.37;42.47;;
66747;Laerm;53658;50.742;10.864;2024-02-26T12:07:54;40.79;38.67;42.41;;
66747;Laerm;53658;50.742;10.864;2024-02-26T12:10:30;40.73;38.21;42.41;;
66747;Laerm;53658;50.742;10.864;2024-02-26T12:13:05;40.73;38.67;42.59;;
66747;Laerm;53658;50.742;10.864;2024-02-26T12:18:18;40.66;38.21;42.35;;
66747;Laerm;53658;50.742;10.864;2024-02-26T12:20:44;40.64;38.81;42.22;;
66747;Laerm;53658;50.742;10.864;2024-02-26T12:23:17;40.61;38.37;42.35;;
66747;Laerm;53658;50.742;10.864;2024-02-26T12:25:44;40.56;38.21;42.47;;
66747;Laerm;53658;50.742;10.864;2024-02-26T12:28:09;40.50;38.05;42.35;;
66747;Laerm;53658;50.742;10.864;2024-02-26T12:30:35;40.48;38.37;42.16;;
66747;Laerm;53658;50.742;10.864;2024-02-26T12:33:02;40.46;38.21;42.09;;
66747;Laerm;53658;50.742;10.864;2024-02-26T12:35:29;40.50;38.21;42.35;;
66747;Laerm;53658;50.742;10.864;2024-02-26T12:37:58;40.53;38.21;42.22;;
66747;Laerm;53658;50.742;10.864;2024-02-26T12:40:24;40.52;38.52;42.41;;
66747;Laerm;53658;50.742;10.864;2024-02-26T12:42:50;40.55;37.52;42.16;;
66747;Laerm;53658;50.742;10.864;2024-02-26T12:45:16;40.56;38.05;42.59;;
66747;Laerm;53658;50.742;10.864;2024-02-26T12:47:43;40.59;38.21;42.35;;
66747;Laerm;53658;50.742;10.864;2024-02-26T12:50:10;40.57;38.37;42.29;;
66747;Laerm;53658;50.742;10.864;2024-02-26T12:52:39;40.50;38.21;42.16;;
66747;Laerm;53658;50.742;10.864;2024-02-26T12:55:06;40.50;38.21;42.29;;
66747;Laerm;53658;50.742;10.864;2024-02-26T12:57:37;40.49;38.05;42.29;;
66747;Laerm;53658;50.742;10.864;2024-02-26T13:00:05;40.52;38.37;42.22;;
66747;Laerm;53658;50.742;10.864;2024-02-26T13:02:36;40.53;38.05;42.09;;
66747;Laerm;53658;50.742;10.864;2024-02-26T13:05:07;40.53;38.32;42.09;;
66747;Laerm;53658;50.742;10.864;2024-02-26T13:07:34;40.58;37.52;42.29;;
66747;Laerm;53658;50.742;10.864;2024-02-26T13:10:00;40.60;38.21;42.16;;
66747;Laerm;53658;50.742;10.864;2024-02-26T13:12:27;40.56;38.52;42.35;;
66747;Laerm;53658;50.742;10.864;2024-02-26T13:15:00;40.55;38.05;42.09;;
66747;Laerm;53658;50.742;10.864;2024-02-26T13:17:26;40.57;38.52;42.35;;
66747;Laerm;53658;50.742;10.864;2024-02-26T13:19:54;40.56;38.21;42.29;;
66747;Laerm;53658;50.742;10.864;2024-02-26T13:22:22;40.52;38.05;42.29;;
66747;Laerm;53658;50.742;10.864;2024-02-26T13:24:59;40.53;38.21;42.35;;
66747;Laerm;53658;50.742;10.864;2024-02-26T13:27:25;40.54;37.70;42.35;;
66747;Laerm;53658;50.742;10.864;2024-02-26T13:32:34;40.47;37.88;42.22;;
66747;Laerm;53658;50.742;10.864;2024-02-26T13:35:19;40.49;37.70;42.29;;
66747;Laerm;53658;50.742;10.864;2024-02-26T13:37:45;40.49;38.21;42.35;;
66747;Laerm;53658;50.742;10.864;2024-02-26T13:40:11;40.47;38.21;42.47;;
66747;Laerm;53658;50.742;10.864;2024-02-26T13:42:38;40.45;38.05;42.29;;